Terminal Aerodrome Forecast
Issued by NWS

Home | Current Version | Previous Version | Graphics & Text | Print | Product List | Glossary On
Versions: 1 2 3 4 5 6 7 8 9 10 11 12 13 14 15 16 17 18
606
FTUS43 KICT 152159 AAA
TAFHUT
TAF AMD
KHUT 152159Z 1522/1618 16012KT P6SM FEW040
     FM152300 15011KT P6SM VCTS SCT040CB BKN080
     FM160200 15008KT P6SM BKN150
     FM161100 17005KT P6SM BKN050=

USA.gov is the U.S. government's official web portal to all federal, state and local government web resources and services.